createdAt,value
2018-09-06T00:01:52.920Z,94.90
2018-09-06T00:04:21.112Z,95.00
2018-09-06T00:06:49.406Z,95.10
2018-09-06T00:09:17.626Z,95.20
2018-09-06T00:11:45.851Z,95.20
2018-09-06T00:14:14.076Z,95.30
2018-09-06T00:16:42.316Z,95.40
2018-09-06T00:19:10.628Z,95.50
2018-09-06T00:21:38.863Z,95.70
2018-09-06T00:24:07.068Z,95.70
2018-09-06T00:26:35.269Z,95.80
2018-09-06T00:29:03.504Z,95.80
2018-09-06T00:31:31.767Z,96.00
2018-09-06T00:33:59.960Z,96.10
2018-09-06T00:36:28.276Z,95.90
2018-09-06T00:38:56.613Z,96.40
2018-09-06T00:41:24.837Z,96.40
2018-09-06T00:43:53.084Z,96.50
2018-09-06T00:46:21.285Z,96.70
2018-09-06T00:48:49.657Z,96.80
2018-09-06T00:51:17.867Z,96.80
2018-09-06T00:53:46.069Z,96.90
2018-09-06T00:56:14.291Z,96.90
2018-09-06T00:58:42.523Z,96.90
2018-09-06T01:01:10.738Z,97.00
2018-09-06T01:03:38.970Z,97.00
2018-09-06T01:06:07.512Z,97.00
2018-09-06T01:08:35.765Z,97.10
2018-09-06T01:11:03.983Z,97.10
2018-09-06T01:13:32.219Z,97.20
2018-09-06T01:16:00.451Z,97.20
2018-09-06T01:18:28.660Z,97.30
2018-09-06T01:20:56.913Z,97.30
2018-09-06T01:23:25.135Z,97.40
2018-09-06T01:25:53.659Z,97.40
2018-09-06T01:28:21.883Z,97.40
2018-09-06T01:30:50.998Z,97.50
2018-09-06T01:33:19.200Z,97.60
2018-09-06T01:35:52.811Z,97.60
2018-09-06T01:38:21.062Z,97.70
2018-09-06T01:40:49.259Z,97.70
2018-09-06T01:43:17.464Z,97.70
2018-09-06T01:45:45.812Z,97.70
2018-09-06T01:48:14.008Z,97.80
2018-09-06T01:50:42.293Z,97.80
2018-09-06T01:53:10.525Z,97.90
2018-09-06T01:55:38.720Z,98.00
2018-09-06T01:58:06.941Z,98.10
2018-09-06T02:00:35.204Z,98.10
2018-09-06T02:03:03.430Z,98.20
2018-09-06T02:05:37.041Z,98.20
2018-09-06T02:08:06.856Z,98.30
2018-09-06T02:10:35.606Z,98.30
2018-09-06T02:13:03.824Z,98.20
2018-09-06T02:15:32.447Z,98.30
2018-09-06T02:18:00.655Z,98.30
2018-09-06T02:20:28.851Z,98.30
2018-09-06T02:22:57.068Z,98.40
2018-09-06T02:25:25.292Z,98.40
2018-09-06T02:27:53.519Z,98.50
2018-09-06T02:30:21.724Z,98.50
2018-09-06T02:32:49.939Z,98.60
2018-09-06T02:35:18.180Z,98.60
2018-09-06T02:37:46.380Z,98.70
2018-09-06T02:40:19.976Z,98.70
2018-09-06T02:42:48.188Z,98.80
2018-09-06T02:45:16.448Z,98.90
2018-09-06T02:47:50.257Z,98.90
2018-09-06T02:50:23.788Z,98.80
2018-09-06T02:52:52.775Z,98.70
2018-09-06T02:55:20.977Z,98.60
2018-09-06T02:57:49.552Z,98.60
2018-09-06T03:00:22.018Z,98.70
2018-09-06T03:02:51.235Z,98.70
2018-09-06T03:05:19.430Z,98.80
2018-09-06T03:07:47.811Z,98.90
2018-09-06T03:10:16.002Z,98.90
2018-09-06T03:12:44.359Z,99.00
2018-09-06T03:15:13.256Z,99.00
2018-09-06T03:17:41.604Z,99.00
2018-09-06T03:20:10.260Z,99.00
2018-09-06T03:22:38.600Z,99.00
2018-09-06T03:25:07.055Z,99.00
2018-09-06T03:27:35.305Z,99.10
2018-09-06T03:30:03.568Z,99.10
2018-09-06T03:32:32.177Z,99.10
2018-09-06T03:35:00.370Z,99.10
2018-09-06T03:37:28.665Z,99.10
2018-09-06T03:39:56.876Z,99.00
2018-09-06T03:42:25.199Z,98.90
2018-09-06T03:44:53.552Z,98.80
2018-09-06T03:47:21.760Z,98.70
2018-09-06T03:49:50.012Z,98.60
2018-09-06T03:52:18.240Z,98.70
2018-09-06T03:54:46.436Z,98.60
2018-09-06T03:57:14.667Z,98.60
2018-09-06T03:59:42.884Z,98.60
2018-09-06T04:02:11.148Z,98.60
2018-09-06T04:06:58.511Z,98.70
2018-09-06T04:09:26.787Z,98.80
2018-09-06T04:11:55.103Z,98.90
2018-09-06T04:14:23.784Z,99.10
2018-09-06T04:16:52.008Z,99.00
2018-09-06T04:19:20.315Z,99.00
2018-09-06T04:21:48.528Z,98.90
2018-09-06T04:24:16.802Z,98.90
2018-09-06T04:26:44.998Z,98.90
2018-09-06T04:29:13.220Z,98.90
2018-09-06T04:31:41.524Z,98.90
2018-09-06T04:34:09.873Z,99.00
2018-09-06T04:36:38.159Z,99.10
2018-09-06T04:39:08.274Z,99.10
2018-09-06T04:41:36.483Z,99.20
2018-09-06T04:44:04.843Z,99.20
2018-09-06T04:46:33.515Z,99.20
2018-09-06T04:49:01.933Z,99.10
2018-09-06T04:51:30.133Z,99.10
2018-09-06T04:53:58.351Z,99.00
2018-09-06T04:56:26.624Z,99.00
2018-09-06T04:58:54.924Z,98.90
2018-09-06T05:01:23.235Z,98.90
2018-09-06T05:03:52.108Z,98.90
2018-09-06T05:06:20.340Z,98.90
2018-09-06T05:08:48.531Z,98.80
2018-09-06T05:11:16.779Z,98.90
2018-09-06T05:13:44.980Z,98.90
2018-09-06T05:16:13.209Z,98.90
2018-09-06T05:18:41.436Z,98.90
2018-09-06T05:21:09.699Z,98.90
2018-09-06T05:23:37.979Z,98.70
2018-09-06T05:26:06.383Z,98.60
2018-09-06T05:28:34.616Z,98.50
2018-09-06T05:31:02.800Z,98.40
2018-09-06T05:33:31.052Z,98.30
2018-09-06T05:35:59.504Z,98.30
2018-09-06T05:38:27.650Z,98.20
2018-09-06T05:40:55.880Z,98.20
2018-09-06T05:43:24.145Z,98.20
2018-09-06T05:45:52.380Z,98.20
2018-09-06T05:48:20.613Z,98.10
2018-09-06T05:50:48.827Z,97.90
2018-09-06T05:53:17.045Z,97.60
2018-09-06T05:55:45.244Z,97.40
2018-09-06T05:58:13.450Z,97.30
2018-09-06T06:00:43.176Z,97.20
2018-09-06T06:03:11.665Z,97.10
2018-09-06T06:05:39.872Z,97.10
2018-09-06T06:08:19.422Z,97.10
2018-09-06T06:10:47.668Z,97.20
2018-09-06T06:13:15.868Z,97.20
2018-09-06T06:15:44.073Z,97.20
2018-09-06T06:18:12.319Z,97.40
2018-09-06T06:20:40.872Z,97.20
2018-09-06T06:23:09.108Z,97.20
2018-09-06T06:25:37.319Z,97.20
2018-09-06T06:28:05.574Z,97.30
2018-09-06T06:30:33.784Z,97.40
2018-09-06T06:33:02.021Z,97.40
2018-09-06T06:35:30.336Z,97.40
2018-09-06T06:37:58.580Z,97.40
2018-09-06T06:40:26.784Z,97.40
2018-09-06T06:42:55.052Z,97.40
2018-09-06T06:45:23.281Z,97.40
2018-09-06T06:47:51.476Z,97.30
2018-09-06T06:50:19.754Z,97.20
2018-09-06T06:52:47.949Z,97.20
2018-09-06T06:55:16.532Z,97.10
2018-09-06T06:57:44.816Z,96.90
2018-09-06T07:00:13.083Z,96.60
2018-09-06T07:02:41.289Z,96.40
2018-09-06T07:05:09.499Z,96.50
2018-09-06T07:07:38.533Z,95.90
2018-09-06T07:10:06.819Z,95.70
2018-09-06T07:12:35.047Z,95.60
2018-09-06T07:15:03.271Z,95.40
2018-09-06T07:17:31.483Z,95.20
2018-09-06T07:19:59.708Z,95.00
2018-09-06T07:22:27.919Z,94.80
2018-09-06T07:24:56.210Z,94.70
2018-09-06T07:27:24.498Z,94.50
2018-09-06T07:29:52.683Z,94.50
2018-09-06T07:32:21.020Z,94.30
2018-09-06T07:34:49.272Z,94.00
2018-09-06T07:37:17.477Z,93.80
2018-09-06T07:39:45.715Z,93.60
2018-09-06T07:42:13.951Z,93.40
2018-09-06T07:44:42.204Z,93.30
2018-09-06T07:47:10.405Z,93.20
2018-09-06T07:49:38.627Z,92.90
2018-09-06T07:52:06.911Z,92.70
2018-09-06T07:54:35.091Z,92.30
2018-09-06T07:57:03.362Z,92.00
2018-09-06T07:59:31.563Z,91.60
2018-09-06T08:01:59.786Z,91.20
2018-09-06T08:04:27.998Z,90.60
2018-09-06T08:06:56.196Z,90.40
2018-09-06T08:09:24.399Z,90.10
2018-09-06T08:11:52.634Z,89.80
2018-09-06T08:14:20.832Z,89.20
2018-09-06T08:16:49.065Z,88.60
2018-09-06T08:19:17.292Z,88.10
2018-09-06T08:21:45.518Z,87.20
2018-09-06T08:24:13.800Z,86.40
2018-09-06T08:26:41.916Z,85.70
2018-09-06T08:29:10.164Z,85.40
2018-09-06T08:31:38.360Z,84.50
2018-09-06T08:34:06.586Z,83.80
2018-09-06T08:36:34.815Z,83.00
2018-09-06T08:39:03.164Z,82.30
2018-09-06T08:41:31.385Z,81.90
2018-09-06T08:43:59.622Z,81.10
2018-09-06T08:46:27.850Z,81.20
2018-09-06T08:48:56.058Z,80.30
2018-09-06T08:51:24.263Z,79.80
2018-09-06T08:53:52.554Z,79.40
2018-09-06T08:56:20.753Z,78.60
2018-09-06T08:58:48.988Z,77.70
2018-09-06T09:01:22.676Z,77.20
2018-09-06T09:03:50.900Z,76.90
2018-09-06T09:06:19.132Z,76.50
2018-09-06T09:08:47.404Z,76.50
2018-09-06T09:11:15.635Z,75.90
2018-09-06T09:13:43.824Z,75.30
2018-09-06T09:16:12.064Z,74.50
2018-09-06T09:18:40.271Z,73.60
2018-09-06T09:21:08.532Z,73.00
2018-09-06T09:23:36.919Z,72.80
2018-09-06T09:26:05.415Z,72.80
2018-09-06T09:28:33.612Z,72.90
2018-09-06T09:31:01.807Z,72.50
2018-09-06T09:33:30.064Z,72.20
2018-09-06T09:35:58.341Z,71.80
2018-09-06T09:38:26.503Z,71.00
2018-09-06T09:40:54.679Z,70.40
2018-09-06T09:43:22.934Z,69.80
2018-09-06T09:45:51.127Z,69.10
2018-09-06T09:48:19.381Z,68.00
2018-09-06T09:53:15.111Z,67.30
2018-09-06T09:55:43.401Z,67.20
2018-09-06T09:58:11.637Z,67.00
2018-09-06T10:00:41.131Z,67.00
2018-09-06T10:03:14.795Z,66.60
2018-09-06T10:05:49.276Z,66.00
2018-09-06T10:08:22.852Z,65.80
2018-09-06T10:10:51.104Z,65.20
2018-09-06T10:13:19.345Z,64.40
2018-09-06T10:15:48.175Z,63.70
2018-09-06T10:18:16.411Z,63.10
2018-09-06T10:20:44.616Z,63.60
2018-09-06T10:23:12.829Z,62.20
2018-09-06T10:25:41.148Z,61.60
2018-09-06T10:28:09.361Z,61.40
2018-09-06T10:30:37.591Z,61.20
2018-09-06T10:33:05.934Z,61.40
2018-09-06T10:35:34.248Z,61.40
2018-09-06T10:38:02.604Z,61.10
2018-09-06T10:40:30.795Z,61.90
2018-09-06T10:42:59.154Z,61.00
2018-09-06T10:45:27.436Z,60.50
2018-09-06T10:47:55.644Z,60.60
2018-09-06T10:50:23.875Z,60.40
2018-09-06T10:52:52.136Z,60.90
2018-09-06T10:55:20.547Z,60.60
2018-09-06T10:57:48.743Z,61.00
2018-09-06T11:00:17.008Z,61.30
2018-09-06T11:02:45.859Z,61.60
2018-09-06T11:05:14.120Z,62.50
2018-09-06T11:07:42.341Z,63.70
2018-09-06T11:10:10.585Z,64.60
2018-09-06T11:12:38.839Z,65.40
2018-09-06T11:15:07.072Z,66.30
2018-09-06T11:17:35.279Z,66.60
2018-09-06T11:20:03.551Z,67.10
2018-09-06T11:22:32.025Z,68.00
2018-09-06T11:25:00.284Z,69.00
2018-09-06T11:27:28.533Z,69.00
2018-09-06T11:29:56.736Z,68.40
2018-09-06T11:32:24.937Z,67.50
2018-09-06T11:34:53.161Z,68.10
2018-09-06T11:37:21.387Z,67.30
2018-09-06T11:39:49.602Z,66.70
2018-09-06T11:42:17.816Z,66.20
2018-09-06T11:44:46.049Z,66.50
2018-09-06T11:47:14.289Z,66.50
2018-09-06T11:49:42.474Z,67.00
2018-09-06T11:52:10.756Z,66.70
2018-09-06T11:54:39.008Z,66.50
2018-09-06T11:57:07.229Z,65.70
2018-09-06T11:59:35.432Z,65.40
2018-09-06T12:02:03.704Z,63.80
2018-09-06T12:04:31.968Z,63.50
2018-09-06T12:07:00.172Z,63.50
2018-09-06T12:09:28.368Z,63.70
2018-09-06T12:11:56.615Z,64.00
2018-09-06T12:14:24.856Z,64.60
2018-09-06T12:16:53.125Z,64.60
2018-09-06T12:19:21.493Z,64.70
2018-09-06T12:21:49.744Z,64.30
2018-09-06T12:24:17.968Z,63.80
2018-09-06T12:26:46.192Z,62.60
2018-09-06T12:29:14.423Z,61.80
2018-09-06T12:34:05.892Z,61.20
2018-09-06T12:36:34.080Z,60.10
2018-09-06T12:39:02.528Z,59.90
2018-09-06T12:41:30.793Z,59.80
2018-09-06T12:43:59.056Z,59.60
2018-09-06T12:46:27.278Z,59.10
2018-09-06T12:48:55.537Z,59.70
2018-09-06T12:51:23.787Z,58.70
2018-09-06T12:53:52.068Z,58.10
2018-09-06T12:56:20.279Z,57.80
2018-09-06T12:58:48.505Z,57.10
2018-09-06T13:01:16.748Z,56.50
2018-09-06T13:03:44.940Z,56.20
2018-09-06T13:06:13.163Z,55.50
2018-09-06T13:08:41.400Z,55.40
2018-09-06T13:11:09.635Z,55.30
2018-09-06T13:13:37.857Z,55.30
2018-09-06T13:16:06.384Z,54.60
2018-09-06T13:18:34.653Z,54.50
2018-09-06T13:21:02.827Z,54.60
2018-09-06T13:23:32.136Z,54.40
2018-09-06T13:26:00.356Z,53.70
2018-09-06T13:28:28.796Z,53.40
2018-09-06T13:30:57.149Z,53.00
2018-09-06T13:33:25.399Z,52.90
2018-09-06T13:35:53.739Z,53.20
2018-09-06T13:38:21.967Z,52.90
2018-09-06T13:40:50.289Z,52.70
2018-09-06T13:43:19.089Z,52.70
2018-09-06T13:45:47.423Z,52.60
2018-09-06T13:48:15.891Z,51.30
2018-09-06T13:50:44.184Z,50.50
2018-09-06T13:53:12.371Z,49.40
2018-09-06T13:55:40.647Z,49.50
2018-09-06T13:58:08.912Z,49.20
2018-09-06T14:00:37.224Z,49.20
2018-09-06T14:03:05.510Z,49.30
2018-09-06T14:05:33.704Z,49.30
2018-09-06T14:08:01.908Z,49.10
2018-09-06T14:10:30.129Z,49.20
2018-09-06T14:12:58.340Z,48.80
2018-09-06T14:15:26.568Z,47.80
2018-09-06T14:17:54.764Z,47.80
2018-09-06T14:20:22.992Z,48.40
2018-09-06T14:22:51.220Z,48.40
2018-09-06T14:25:19.477Z,47.90
2018-09-06T14:27:47.688Z,47.50
2018-09-06T14:30:15.929Z,47.10
2018-09-06T14:32:44.183Z,47.00
2018-09-06T14:35:12.487Z,46.20
2018-09-06T14:37:40.681Z,45.60
2018-09-06T14:40:09.155Z,45.40
2018-09-06T14:42:37.416Z,45.20
2018-09-06T14:45:06.028Z,43.10
2018-09-06T14:47:34.259Z,42.20
2018-09-06T14:50:02.484Z,42.60
2018-09-06T14:52:30.712Z,42.60
2018-09-06T14:54:58.972Z,42.90
2018-09-06T14:57:27.217Z,42.90
2018-09-06T14:59:55.445Z,43.00
2018-09-06T15:02:23.634Z,43.00
2018-09-06T15:04:51.864Z,43.50
2018-09-06T15:07:20.082Z,44.00
2018-09-06T15:09:48.312Z,44.60
2018-09-06T15:12:16.548Z,45.50
2018-09-06T15:14:45.303Z,46.50
2018-09-06T15:17:13.565Z,46.20
2018-09-06T15:19:41.754Z,46.30
2018-09-06T15:22:09.976Z,46.70
2018-09-06T15:24:38.212Z,47.40
2018-09-06T15:27:06.459Z,48.60
2018-09-06T15:29:34.644Z,48.70
2018-09-06T15:32:02.873Z,49.20
2018-09-06T15:34:31.103Z,49.60
2018-09-06T15:36:59.308Z,50.70
2018-09-06T15:39:27.528Z,54.30
2018-09-06T15:41:55.748Z,56.60
2018-09-06T15:44:23.983Z,58.60
2018-09-06T15:46:52.205Z,60.10
2018-09-06T15:49:20.468Z,62.10
2018-09-06T15:51:48.733Z,64.90
2018-09-06T15:54:17.199Z,67.90
2018-09-06T15:56:45.464Z,72.00
2018-09-06T15:59:13.701Z,75.50
2018-09-06T16:01:41.933Z,78.50
2018-09-06T16:04:10.136Z,86.80
2018-09-06T16:06:38.343Z,87.60
2018-09-06T16:09:06.853Z,90.10
2018-09-06T16:11:35.128Z,90.20
2018-09-06T16:14:03.340Z,90.50
2018-09-06T16:16:31.552Z,90.90
2018-09-06T16:18:59.756Z,91.20
2018-09-06T16:21:28.024Z,91.60
2018-09-06T16:23:56.287Z,92.20
2018-09-06T16:26:24.499Z,93.10
2018-09-06T16:28:52.768Z,93.50
2018-09-06T16:31:20.996Z,94.00
2018-09-06T16:33:49.215Z,94.20
2018-09-06T16:36:17.451Z,94.50
2018-09-06T16:38:45.933Z,94.60
2018-09-06T16:41:14.165Z,94.80
2018-09-06T16:43:42.399Z,94.90
2018-09-06T16:46:10.721Z,95.10
2018-09-06T16:48:39.000Z,95.20
2018-09-06T16:51:07.215Z,95.30
2018-09-06T16:53:35.492Z,95.40
2018-09-06T16:56:03.733Z,95.60
2018-09-06T16:58:31.980Z,95.80
2018-09-06T17:01:00.235Z,96.00
2018-09-06T17:03:28.417Z,96.10
2018-09-06T17:05:56.614Z,96.20
2018-09-06T17:08:24.843Z,96.40
2018-09-06T17:10:53.062Z,96.40
2018-09-06T17:13:21.327Z,96.60
2018-09-06T17:15:49.545Z,96.70
2018-09-06T17:18:17.785Z,96.80
2018-09-06T17:20:46.056Z,96.90
2018-09-06T17:23:14.268Z,97.10
2018-09-06T17:25:42.569Z,97.20
2018-09-06T17:28:10.796Z,97.20
2018-09-06T17:30:39.020Z,97.30
2018-09-06T17:33:07.282Z,97.30
2018-09-06T17:35:35.500Z,97.60
2018-09-06T17:38:03.731Z,97.60
2018-09-06T17:40:31.952Z,97.70
2018-09-06T17:43:00.193Z,97.90
2018-09-06T17:45:28.461Z,98.00
2018-09-06T17:47:56.699Z,98.20
2018-09-06T17:50:24.934Z,98.30
2018-09-06T17:52:53.169Z,98.30
2018-09-06T17:55:21.416Z,98.40
2018-09-06T17:57:49.664Z,98.50
2018-09-06T18:00:17.924Z,98.70
2018-09-06T18:02:46.500Z,98.80
2018-09-06T18:05:14.724Z,98.90
2018-09-06T18:07:42.944Z,99.00
2018-09-06T18:10:11.156Z,99.10
2018-09-06T18:12:39.379Z,99.20
2018-09-06T18:15:07.822Z,99.30
2018-09-06T18:17:36.128Z,99.40
2018-09-06T18:20:04.603Z,99.40
2018-09-06T18:22:32.922Z,99.50
2018-09-06T18:25:01.264Z,99.50
2018-09-06T18:27:29.510Z,99.50
2018-09-06T18:29:57.727Z,99.50
2018-09-06T18:32:25.975Z,99.60
2018-09-06T18:34:54.280Z,99.60
2018-09-06T18:37:22.488Z,99.60
2018-09-06T18:39:50.840Z,99.80
2018-09-06T18:42:19.096Z,99.80
2018-09-06T18:44:47.331Z,99.90
2018-09-06T18:47:15.897Z,99.90
2018-09-06T18:49:44.162Z,99.90
2018-09-06T18:52:12.331Z,99.90
2018-09-06T18:54:40.536Z,99.90
2018-09-06T18:57:08.751Z,99.90
2018-09-06T18:59:37.002Z,99.90
2018-09-06T19:02:05.310Z,99.90
2018-09-06T19:04:33.451Z,99.90
2018-09-06T19:07:01.677Z,99.90
2018-09-06T19:09:29.880Z,99.90
2018-09-06T19:11:58.092Z,99.90
2018-09-06T19:14:26.352Z,99.90
2018-09-06T19:16:54.592Z,99.90
2018-09-06T19:19:22.858Z,99.90
2018-09-06T19:21:51.072Z,99.90
2018-09-06T19:24:19.306Z,99.90
2018-09-06T19:26:47.542Z,99.90
2018-09-06T19:29:15.894Z,99.90
2018-09-06T19:31:44.137Z,99.90
2018-09-06T19:34:12.316Z,99.90
2018-09-06T19:36:40.524Z,99.90
2018-09-06T19:39:10.855Z,99.90
2018-09-06T19:41:39.015Z,99.90
2018-09-06T19:44:07.275Z,99.90
2018-09-06T19:46:35.551Z,99.90
2018-09-06T19:49:03.795Z,99.90
2018-09-06T19:51:32.022Z,99.90
2018-09-06T19:54:00.584Z,99.90
2018-09-06T19:56:28.795Z,99.90
2018-09-06T19:58:57.015Z,99.90
2018-09-06T20:01:25.251Z,99.90
2018-09-06T20:03:53.495Z,99.90
2018-09-06T20:06:21.811Z,99.90
2018-09-06T20:08:50.043Z,99.90
2018-09-06T20:11:18.303Z,99.90
2018-09-06T20:13:46.525Z,99.90
2018-09-06T20:16:14.874Z,99.90
2018-09-06T20:18:43.088Z,99.90
2018-09-06T20:21:11.607Z,99.90
2018-09-06T20:23:39.842Z,99.90
2018-09-06T20:26:08.085Z,99.90
2018-09-06T20:28:36.389Z,99.90
2018-09-06T20:31:04.728Z,99.90
2018-09-06T20:33:33.145Z,99.90
2018-09-06T20:36:01.316Z,99.90
2018-09-06T20:38:29.617Z,99.90
2018-09-06T20:40:57.831Z,99.90
2018-09-06T20:43:26.117Z,99.90
2018-09-06T20:45:54.486Z,99.90
2018-09-06T20:48:22.680Z,99.90
2018-09-06T20:50:50.919Z,99.90
2018-09-06T20:53:19.225Z,99.90
2018-09-06T20:55:47.608Z,99.90
2018-09-06T20:58:15.848Z,99.90
2018-09-06T21:00:44.082Z,99.90
2018-09-06T21:03:12.296Z,99.90
2018-09-06T21:05:40.517Z,99.90
2018-09-06T21:08:08.739Z,99.90
2018-09-06T21:10:36.967Z,99.90
2018-09-06T21:13:05.197Z,99.90
2018-09-06T21:15:33.406Z,99.90
2018-09-06T21:18:01.598Z,99.90
2018-09-06T21:20:29.816Z,99.90
2018-09-06T21:22:58.084Z,99.90
2018-09-06T21:25:26.328Z,99.90
2018-09-06T21:27:54.642Z,99.90
2018-09-06T21:30:22.860Z,99.90
2018-09-06T21:32:51.060Z,99.90
2018-09-06T21:35:19.281Z,99.90
2018-09-06T21:37:47.631Z,99.90
2018-09-06T21:40:15.821Z,99.90
2018-09-06T21:42:44.107Z,99.90
2018-09-06T21:45:12.311Z,99.90
2018-09-06T21:47:40.507Z,99.90
2018-09-06T21:50:08.750Z,99.90
2018-09-06T21:52:36.972Z,99.90
2018-09-06T21:55:05.448Z,99.90
2018-09-06T21:57:33.676Z,99.90
2018-09-06T22:00:01.972Z,99.90
2018-09-06T22:02:35.576Z,99.90
2018-09-06T22:05:03.807Z,99.90
2018-09-06T22:07:32.049Z,99.90
2018-09-06T22:10:00.243Z,99.90
2018-09-06T22:12:28.469Z,99.90
2018-09-06T22:14:56.824Z,99.90
2018-09-06T22:17:25.043Z,99.90
2018-09-06T22:19:53.235Z,99.90
2018-09-06T22:22:21.479Z,99.90
2018-09-06T22:24:49.730Z,99.90
2018-09-06T22:27:17.936Z,99.90
2018-09-06T22:29:46.148Z,99.90
2018-09-06T22:32:14.372Z,99.90
2018-09-06T22:34:42.602Z,99.90
2018-09-06T22:37:10.807Z,99.90
2018-09-06T22:39:39.032Z,99.90
2018-09-06T22:42:07.240Z,99.90
2018-09-06T22:44:35.556Z,99.90
2018-09-06T22:47:03.784Z,99.90
2018-09-06T22:49:31.972Z,99.90
2018-09-06T22:52:00.198Z,99.90
2018-09-06T22:54:28.423Z,99.90
2018-09-06T22:56:56.657Z,99.90
2018-09-06T22:59:24.911Z,99.90
2018-09-06T23:01:53.171Z,99.90
2018-09-06T23:04:21.403Z,99.90
2018-09-06T23:06:49.639Z,99.90
2018-09-06T23:09:17.899Z,99.90
2018-09-06T23:11:46.140Z,99.90
2018-09-06T23:14:14.355Z,99.90
2018-09-06T23:16:42.556Z,99.90
2018-09-06T23:19:10.774Z,99.90
2018-09-06T23:21:39.006Z,99.90
2018-09-06T23:24:07.516Z,99.90
2018-09-06T23:26:35.724Z,99.90
2018-09-06T23:29:04.024Z,99.90
2018-09-06T23:31:32.271Z,99.90
2018-09-06T23:34:00.468Z,99.90
2018-09-06T23:36:29.024Z,99.90
2018-09-06T23:38:57.244Z,99.90
2018-09-06T23:41:25.557Z,99.90
2018-09-06T23:43:53.724Z,99.90
2018-09-06T23:46:21.959Z,99.90
2018-09-06T23:48:50.216Z,99.90
2018-09-06T23:51:18.436Z,99.90
2018-09-06T23:53:46.667Z,99.90
2018-09-06T23:56:14.884Z,99.90
2018-09-06T23:58:43.076Z,99.90
